createdAt,value
2023-04-30T00:00:12.162Z,15.10
2023-04-30T00:02:59.568Z,13.93
2023-04-30T00:05:27.131Z,13.95
2023-04-30T00:07:54.377Z,15.35
2023-04-30T00:10:21.968Z,15.45
2023-04-30T00:12:49.246Z,15.18
2023-04-30T00:15:16.892Z,14.70
2023-04-30T00:17:44.108Z,14.77
2023-04-30T00:20:12.489Z,15.38
2023-04-30T00:22:39.898Z,16.08
2023-04-30T00:25:07.881Z,17.05
2023-04-30T00:27:35.077Z,16.40
2023-04-30T00:30:02.890Z,15.55
2023-04-30T00:32:30.252Z,16.30
2023-04-30T00:34:57.781Z,16.23
2023-04-30T00:37:25.047Z,16.80
2023-04-30T00:39:53.031Z,13.95
2023-04-30T00:42:20.564Z,17.23
2023-04-30T00:44:48.178Z,15.52
2023-04-30T00:47:15.513Z,16.58
2023-04-30T00:49:43.261Z,16.42
2023-04-30T00:52:10.803Z,17.38
2023-04-30T00:54:38.456Z,17.20
2023-04-30T00:57:09.853Z,15.60
2023-04-30T00:59:38.726Z,19.13
2023-04-30T01:02:06.228Z,18.92
2023-04-30T01:04:34.665Z,17.63
2023-04-30T01:07:03.484Z,19.20
2023-04-30T01:09:31.773Z,18.33
2023-04-30T01:12:52.513Z,18.92
2023-04-30T01:16:04.259Z,18.77
2023-04-30T01:19:14.213Z,20.42
2023-04-30T01:21:43.764Z,19.08
2023-04-30T01:24:38.908Z,17.98
2023-04-30T01:27:49.505Z,18.00
2023-04-30T01:30:19.277Z,16.45
2023-04-30T01:32:46.882Z,16.52
2023-04-30T01:35:14.182Z,16.92
2023-04-30T01:38:01.123Z,15.38
2023-04-30T01:41:02.051Z,15.98
2023-04-30T01:44:07.563Z,14.27
2023-04-30T01:46:35.636Z,16.42
2023-04-30T01:49:30.395Z,14.07
2023-04-30T01:52:19.285Z,13.10
2023-04-30T01:54:59.438Z,12.90
2023-04-30T01:57:42.974Z,11.73
2023-04-30T02:00:12.153Z,11.90
2023-04-30T02:02:39.586Z,11.02
2023-04-30T02:05:07.929Z,11.10
2023-04-30T02:07:43.961Z,9.27
2023-04-30T02:10:12.655Z,8.82
2023-04-30T02:12:40.940Z,8.70
2023-04-30T02:15:09.879Z,8.05
2023-04-30T02:17:37.275Z,7.53
2023-04-30T02:20:05.768Z,7.20
2023-04-30T02:22:33.189Z,5.93
2023-04-30T02:25:00.841Z,5.82
2023-04-30T02:27:32.465Z,5.95
2023-04-30T02:30:01.169Z,5.47
2023-04-30T02:32:28.754Z,5.53
2023-04-30T02:34:56.975Z,5.03
2023-04-30T02:37:24.778Z,5.10
2023-04-30T02:39:54.070Z,4.70
2023-04-30T02:42:21.794Z,4.78
2023-04-30T02:44:49.411Z,4.70
2023-04-30T02:47:16.730Z,5.15
2023-04-30T02:49:44.422Z,5.47
2023-04-30T02:52:11.725Z,6.13
2023-04-30T02:54:39.443Z,7.30
2023-04-30T02:57:07.451Z,8.15
2023-04-30T02:59:35.072Z,7.50
2023-04-30T03:02:02.269Z,7.20
2023-04-30T03:04:29.936Z,7.43
2023-04-30T03:06:57.201Z,8.88
2023-04-30T03:09:24.913Z,8.38
2023-04-30T03:11:52.198Z,8.30
2023-04-30T03:14:19.820Z,9.30
2023-04-30T03:16:47.205Z,9.20
2023-04-30T03:19:15.038Z,10.80
2023-04-30T03:21:42.302Z,10.98
2023-04-30T03:24:09.846Z,10.13
2023-04-30T03:26:37.212Z,10.07
2023-04-30T03:29:04.851Z,10.90
2023-04-30T03:31:32.547Z,12.55
2023-04-30T03:34:00.458Z,10.80
2023-04-30T03:36:27.837Z,11.02
2023-04-30T03:38:55.535Z,10.48
2023-04-30T03:41:24.377Z,10.75
2023-04-30T03:43:52.052Z,9.48
2023-04-30T03:46:19.559Z,9.70
2023-04-30T03:48:47.253Z,9.65
2023-04-30T03:51:14.564Z,10.82
2023-04-30T03:53:42.197Z,9.90
2023-04-30T03:56:09.677Z,9.40
2023-04-30T03:58:37.550Z,9.77
2023-04-30T04:01:05.617Z,10.85
2023-04-30T04:03:35.875Z,9.63
2023-04-30T04:06:04.923Z,11.02
2023-04-30T04:08:32.964Z,9.90
2023-04-30T04:11:00.395Z,11.88
2023-04-30T04:13:27.947Z,10.75
2023-04-30T04:15:55.424Z,10.38
2023-04-30T04:18:22.976Z,11.38
2023-04-30T04:20:50.298Z,13.20
2023-04-30T04:23:17.985Z,12.20
2023-04-30T04:25:47.323Z,11.25
2023-04-30T04:28:14.979Z,11.30
2023-04-30T04:30:42.492Z,13.77
2023-04-30T04:33:11.598Z,12.70
2023-04-30T04:35:38.940Z,10.98
2023-04-30T04:38:06.660Z,13.10
2023-04-30T04:40:35.604Z,12.13
2023-04-30T04:43:03.344Z,11.73
2023-04-30T04:45:31.590Z,14.35
2023-04-30T04:47:59.281Z,13.80
2023-04-30T04:50:26.626Z,13.25
2023-04-30T04:52:54.208Z,12.45
2023-04-30T04:55:21.608Z,11.88
2023-04-30T04:57:49.283Z,14.25
2023-04-30T05:00:17.995Z,12.35
2023-04-30T05:02:45.660Z,11.35
2023-04-30T05:05:13.022Z,13.80
2023-04-30T05:07:41.465Z,11.98
2023-04-30T05:10:09.597Z,12.27
2023-04-30T05:12:37.260Z,12.05
2023-04-30T05:15:04.945Z,12.15
2023-04-30T05:17:32.594Z,13.65
2023-04-30T05:19:59.886Z,12.32
2023-04-30T05:22:27.494Z,12.25
2023-04-30T05:24:54.814Z,12.73
2023-04-30T05:27:22.459Z,12.10
2023-04-30T05:29:49.769Z,11.35
2023-04-30T05:32:17.488Z,11.85
2023-04-30T05:34:44.841Z,11.95
2023-04-30T05:37:14.514Z,11.32
2023-04-30T05:39:41.854Z,12.55
2023-04-30T05:42:09.423Z,10.85
2023-04-30T05:44:36.719Z,10.90
2023-04-30T05:47:04.449Z,11.90
2023-04-30T05:49:33.286Z,11.02
2023-04-30T05:52:03.805Z,10.15
2023-04-30T05:54:32.066Z,9.48
2023-04-30T05:56:59.986Z,9.80
2023-04-30T05:59:27.271Z,10.82
2023-04-30T06:01:54.920Z,9.70
2023-04-30T06:04:22.184Z,9.48
2023-04-30T06:06:49.819Z,10.50
2023-04-30T06:09:17.129Z,9.10
2023-04-30T06:11:49.155Z,9.82
2023-04-30T06:14:18.244Z,9.05
2023-04-30T06:16:46.258Z,9.27
2023-04-30T06:19:13.565Z,8.70
2023-04-30T06:21:43.606Z,9.15
2023-04-30T06:24:11.073Z,7.82
2023-04-30T06:26:39.071Z,7.63
2023-04-30T06:29:06.464Z,7.68
2023-04-30T06:31:34.220Z,7.78
2023-04-30T06:34:01.499Z,7.22
2023-04-30T06:36:29.147Z,7.45
2023-04-30T06:38:56.411Z,7.30
2023-04-30T06:41:23.955Z,6.30
2023-04-30T06:43:51.388Z,6.82
2023-04-30T06:46:19.081Z,6.55
2023-04-30T06:48:46.396Z,7.75
2023-04-30T06:51:14.860Z,6.47
2023-04-30T06:53:42.483Z,6.38
2023-04-30T06:56:10.004Z,6.70
2023-04-30T06:58:37.316Z,6.22
2023-04-30T07:01:05.064Z,7.03
2023-04-30T07:03:33.831Z,6.95
2023-04-30T07:06:01.871Z,6.28
2023-04-30T07:08:29.309Z,6.68
2023-04-30T07:10:57.334Z,5.80
2023-04-30T07:13:24.662Z,6.15
2023-04-30T07:15:52.944Z,6.50
2023-04-30T07:18:20.639Z,6.22
2023-04-30T07:20:48.218Z,6.03
2023-04-30T07:23:15.723Z,6.03
2023-04-30T07:25:43.495Z,6.70
2023-04-30T07:28:11.118Z,6.00
2023-04-30T07:30:41.082Z,9.15
2023-04-30T07:33:09.862Z,10.27
2023-04-30T07:35:37.548Z,10.15
2023-04-30T07:38:05.992Z,6.88
2023-04-30T07:40:36.189Z,7.28
2023-04-30T07:43:05.252Z,6.70
2023-04-30T07:45:34.083Z,8.70
2023-04-30T07:48:02.391Z,8.73
2023-04-30T07:50:34.087Z,7.82
2023-04-30T07:53:02.742Z,7.32
2023-04-30T07:55:31.337Z,6.47
2023-04-30T07:57:59.804Z,6.78
2023-04-30T08:00:29.728Z,7.70
2023-04-30T08:02:59.250Z,6.43
2023-04-30T08:05:28.251Z,5.80
2023-04-30T08:07:56.394Z,5.53
2023-04-30T08:10:25.400Z,8.68
2023-04-30T08:12:53.255Z,7.15
2023-04-30T08:15:22.044Z,6.35
2023-04-30T08:17:51.354Z,8.95
2023-04-30T08:20:19.454Z,7.68
2023-04-30T08:22:47.507Z,17.55
2023-04-30T08:25:15.176Z,7.18
2023-04-30T08:27:42.552Z,8.18
2023-04-30T08:30:11.088Z,8.75
2023-04-30T08:32:38.540Z,5.18
2023-04-30T08:35:07.348Z,5.00
2023-04-30T08:37:34.919Z,5.18
2023-04-30T08:40:02.583Z,6.43
2023-04-30T08:42:37.627Z,5.85
2023-04-30T08:45:08.883Z,5.15
2023-04-30T08:47:37.519Z,4.90
2023-04-30T08:50:06.948Z,4.38
2023-04-30T08:52:37.421Z,4.03
2023-04-30T08:55:08.981Z,4.25
2023-04-30T08:57:38.407Z,9.48
2023-04-30T09:00:07.533Z,5.25
2023-04-30T09:02:39.374Z,4.43
2023-04-30T09:05:13.926Z,4.05
2023-04-30T09:08:01.143Z,4.20
2023-04-30T09:10:33.386Z,3.60
2023-04-30T09:13:08.201Z,4.50
2023-04-30T09:15:41.487Z,3.95
2023-04-30T09:18:17.797Z,3.50
2023-04-30T09:21:03.382Z,3.88
2023-04-30T09:23:31.157Z,3.95
2023-04-30T09:25:59.674Z,3.95
2023-04-30T09:28:29.023Z,3.28
2023-04-30T09:30:58.067Z,3.85
2023-04-30T09:33:25.465Z,4.85
2023-04-30T09:35:53.230Z,4.07
2023-04-30T09:38:28.202Z,2.90
2023-04-30T09:40:58.187Z,2.92
2023-04-30T09:43:25.965Z,3.40
2023-04-30T09:45:53.826Z,3.17
2023-04-30T09:48:28.262Z,3.17
2023-04-30T09:50:56.401Z,2.33
2023-04-30T09:53:24.362Z,2.58
2023-04-30T09:55:52.892Z,3.53
2023-04-30T09:58:20.586Z,9.18
2023-04-30T10:00:54.467Z,9.82
2023-04-30T10:03:24.204Z,4.60
2023-04-30T10:05:53.266Z,2.92
2023-04-30T10:08:36.438Z,2.50
2023-04-30T10:11:07.294Z,3.38
2023-04-30T10:13:58.833Z,2.45
2023-04-30T10:17:05.000Z,2.20
2023-04-30T10:19:36.656Z,2.00
2023-04-30T10:22:05.248Z,2.10
2023-04-30T10:24:32.536Z,2.33
2023-04-30T10:27:00.180Z,3.72
2023-04-30T10:29:27.443Z,4.28
2023-04-30T10:31:56.649Z,5.25
2023-04-30T10:34:58.837Z,3.72
2023-04-30T10:37:46.726Z,2.97
2023-04-30T10:40:15.070Z,2.15
2023-04-30T10:42:50.462Z,3.53
2023-04-30T10:45:17.977Z,2.40
2023-04-30T10:47:46.252Z,2.47
2023-04-30T10:50:14.031Z,4.50
2023-04-30T10:52:41.816Z,6.38
2023-04-30T10:55:10.300Z,4.00
2023-04-30T10:57:46.737Z,2.30
2023-04-30T11:00:16.545Z,3.10
2023-04-30T11:02:47.465Z,5.65
2023-04-30T11:05:18.491Z,3.92
2023-04-30T11:07:57.452Z,3.55
2023-04-30T11:10:28.613Z,6.50
2023-04-30T11:12:56.403Z,5.28
2023-04-30T11:15:44.306Z,2.90
2023-04-30T11:18:14.449Z,2.47
2023-04-30T11:20:51.051Z,2.55
2023-04-30T11:23:32.222Z,2.85
2023-04-30T11:26:08.145Z,2.28
2023-04-30T11:28:38.329Z,2.53
2023-04-30T11:31:06.206Z,2.60
2023-04-30T11:33:34.927Z,2.88
2023-04-30T11:36:02.780Z,3.20
2023-04-30T11:38:35.640Z,3.28
2023-04-30T11:41:04.794Z,3.10
2023-04-30T11:43:34.817Z,3.00
2023-04-30T11:46:15.499Z,3.00
2023-04-30T11:48:46.646Z,2.95
2023-04-30T11:51:25.310Z,4.57
2023-04-30T11:53:54.136Z,4.85
2023-04-30T11:56:25.454Z,6.38
2023-04-30T11:58:56.058Z,3.60
2023-04-30T12:01:28.649Z,2.65
2023-04-30T12:03:57.705Z,2.95
2023-04-30T12:06:29.341Z,3.42
2023-04-30T12:09:01.657Z,3.15
2023-04-30T12:11:32.351Z,2.80
2023-04-30T12:14:10.917Z,2.30
2023-04-30T12:16:48.395Z,2.05
2023-04-30T12:19:25.399Z,2.80
2023-04-30T12:21:55.213Z,2.60
2023-04-30T12:24:27.149Z,3.08
2023-04-30T12:26:54.813Z,2.42
2023-04-30T12:29:23.112Z,3.40
2023-04-30T12:31:53.594Z,9.13
2023-04-30T12:34:21.244Z,3.85
2023-04-30T12:36:48.559Z,3.05
2023-04-30T12:39:16.636Z,2.42
2023-04-30T12:41:50.056Z,2.50
2023-04-30T12:44:27.724Z,2.60
2023-04-30T12:46:57.807Z,2.10
2023-04-30T12:49:31.053Z,2.65
2023-04-30T12:52:11.527Z,2.47
2023-04-30T12:54:40.514Z,2.47
2023-04-30T12:57:13.156Z,5.40
2023-04-30T12:59:53.392Z,2.75
2023-04-30T13:02:25.614Z,9.88
2023-04-30T13:04:54.647Z,7.68
2023-04-30T13:07:22.215Z,4.43
2023-04-30T13:09:49.851Z,3.10
2023-04-30T13:12:17.413Z,2.50
2023-04-30T13:14:45.014Z,2.92
2023-04-30T13:17:13.982Z,3.78
2023-04-30T13:19:42.120Z,4.10
2023-04-30T13:22:09.525Z,3.00
2023-04-30T13:24:37.490Z,2.63
2023-04-30T13:27:05.029Z,2.60
2023-04-30T13:29:32.928Z,2.40
2023-04-30T13:32:00.290Z,3.20
2023-04-30T13:34:28.137Z,2.40
2023-04-30T13:36:55.530Z,2.65
2023-04-30T13:39:23.264Z,2.80
2023-04-30T13:41:50.746Z,3.70
2023-04-30T13:44:18.731Z,2.53
2023-04-30T13:46:46.196Z,3.17
2023-04-30T13:49:13.875Z,2.83
2023-04-30T13:51:41.360Z,2.30
2023-04-30T13:54:09.108Z,2.55
2023-04-30T13:56:36.439Z,3.20
2023-04-30T13:59:04.223Z,2.67
2023-04-30T14:01:33.090Z,2.40
2023-04-30T14:04:02.125Z,2.10
2023-04-30T14:06:29.808Z,2.30
2023-04-30T14:08:57.438Z,2.90
2023-04-30T14:11:24.909Z,4.18
2023-04-30T14:13:52.743Z,6.32
2023-04-30T14:16:21.005Z,3.50
2023-04-30T14:18:48.675Z,2.47
2023-04-30T14:21:16.096Z,2.30
2023-04-30T14:23:46.593Z,2.40
2023-04-30T14:26:15.024Z,2.35
2023-04-30T14:28:42.651Z,4.18
2023-04-30T14:31:10.712Z,2.30
2023-04-30T14:33:38.369Z,4.50
2023-04-30T14:36:07.716Z,4.53
2023-04-30T14:38:35.413Z,3.70
2023-04-30T14:41:02.673Z,2.78
2023-04-30T14:43:31.274Z,2.20
2023-04-30T14:45:58.630Z,2.08
2023-04-30T14:48:26.292Z,3.50
2023-04-30T14:50:53.588Z,3.28
2023-04-30T14:53:21.305Z,3.45
2023-04-30T14:55:48.950Z,2.50
2023-04-30T14:58:16.499Z,2.58
2023-04-30T15:00:43.750Z,3.50
2023-04-30T15:03:11.313Z,2.50
2023-04-30T15:05:38.623Z,2.00
2023-04-30T15:08:06.779Z,2.72
2023-04-30T15:10:34.071Z,4.75
2023-04-30T15:13:03.803Z,3.90
2023-04-30T15:15:31.215Z,2.30
2023-04-30T15:18:04.024Z,4.60
2023-04-30T15:20:31.976Z,5.95
2023-04-30T15:23:00.144Z,10.23
2023-04-30T15:25:27.761Z,5.70
2023-04-30T15:27:55.570Z,4.32
2023-04-30T15:30:23.069Z,3.00
2023-04-30T15:32:50.983Z,3.50
2023-04-30T15:35:18.476Z,2.40
2023-04-30T15:37:46.072Z,3.65
2023-04-30T15:40:15.710Z,7.15
2023-04-30T15:42:43.765Z,7.20
2023-04-30T15:45:11.269Z,4.70
2023-04-30T15:47:39.415Z,3.72
2023-04-30T15:50:08.021Z,3.20
2023-04-30T15:52:37.537Z,2.33
2023-04-30T15:55:07.048Z,6.43
2023-04-30T15:57:34.585Z,3.72
2023-04-30T16:00:01.855Z,2.58
2023-04-30T16:02:30.317Z,3.10
2023-04-30T16:04:57.683Z,1.85
2023-04-30T16:07:25.373Z,2.45
2023-04-30T16:09:53.653Z,1.90
2023-04-30T16:12:21.728Z,2.92
2023-04-30T16:14:48.934Z,2.67
2023-04-30T16:17:16.533Z,2.22
2023-04-30T16:19:43.950Z,2.20
2023-04-30T16:22:12.426Z,3.38
2023-04-30T16:24:39.752Z,3.60
2023-04-30T16:27:08.480Z,3.08
2023-04-30T16:29:35.803Z,3.65
2023-04-30T16:32:03.413Z,3.80
2023-04-30T16:34:30.717Z,2.58
2023-04-30T16:36:58.260Z,7.32
2023-04-30T16:39:25.539Z,4.20
2023-04-30T16:41:53.139Z,2.60
2023-04-30T16:44:20.747Z,2.15
2023-04-30T16:46:49.170Z,3.70
2023-04-30T16:49:16.965Z,2.60
2023-04-30T16:51:44.525Z,2.63
2023-04-30T16:54:11.862Z,2.67
2023-04-30T16:56:39.416Z,3.80
2023-04-30T16:59:06.833Z,3.35
2023-04-30T17:01:34.746Z,4.90
2023-04-30T17:04:02.261Z,8.55
2023-04-30T17:06:30.160Z,6.90
2023-04-30T17:08:57.567Z,3.10
2023-04-30T17:11:25.359Z,3.13
2023-04-30T17:13:54.607Z,2.72
2023-04-30T17:16:22.370Z,2.80
2023-04-30T17:18:49.699Z,3.38
2023-04-30T17:21:17.391Z,3.10
2023-04-30T17:23:44.852Z,3.03
2023-04-30T17:26:12.382Z,3.00
2023-04-30T17:28:39.774Z,4.13
2023-04-30T17:31:09.458Z,4.03
2023-04-30T17:33:36.815Z,2.85
2023-04-30T17:36:04.716Z,3.90
2023-04-30T17:38:32.359Z,10.35
2023-04-30T17:41:00.007Z,20.35
2023-04-30T17:43:27.749Z,10.10
2023-04-30T17:45:56.376Z,5.82
2023-04-30T17:48:23.872Z,5.70
2023-04-30T17:50:51.628Z,4.57
2023-04-30T17:53:18.997Z,5.00
2023-04-30T17:55:46.719Z,7.18
2023-04-30T17:58:14.145Z,7.35
2023-04-30T18:00:43.579Z,5.28
2023-04-30T18:03:11.388Z,5.00
2023-04-30T18:05:39.700Z,4.50
2023-04-30T18:08:06.967Z,4.93
2023-04-30T18:10:34.730Z,5.25
2023-04-30T18:13:02.324Z,5.68
2023-04-30T18:15:30.143Z,5.65
2023-04-30T18:17:59.381Z,5.75
2023-04-30T18:20:28.128Z,11.00
2023-04-30T18:22:55.333Z,12.50
2023-04-30T18:25:23.007Z,10.52
2023-04-30T18:27:50.296Z,9.20
2023-04-30T18:30:17.936Z,8.05
2023-04-30T18:32:45.234Z,7.18
2023-04-30T18:35:12.924Z,7.07
2023-04-30T18:37:40.657Z,6.93
2023-04-30T18:40:09.167Z,6.50
2023-04-30T18:42:38.579Z,6.40
2023-04-30T18:45:06.844Z,6.07
2023-04-30T18:47:34.224Z,5.28
2023-04-30T18:50:02.130Z,5.93
2023-04-30T18:52:29.461Z,6.15
2023-04-30T18:54:57.104Z,7.57
2023-04-30T18:57:24.436Z,8.02
2023-04-30T18:59:52.060Z,7.45
2023-04-30T19:02:19.833Z,8.85
2023-04-30T19:04:48.489Z,10.43
2023-04-30T19:07:15.760Z,9.43
2023-04-30T19:09:45.273Z,9.88
2023-04-30T19:12:15.083Z,10.88
2023-04-30T19:14:43.340Z,10.77
2023-04-30T19:17:12.586Z,10.77
2023-04-30T19:19:40.565Z,9.75
2023-04-30T19:22:07.973Z,9.77
2023-04-30T19:24:36.094Z,10.05
2023-04-30T19:27:04.385Z,9.77
2023-04-30T19:29:32.567Z,11.30
2023-04-30T19:32:00.215Z,13.80
2023-04-30T19:34:27.938Z,12.93
2023-04-30T19:36:55.484Z,12.25
2023-04-30T19:39:23.380Z,10.32
2023-04-30T19:41:50.835Z,11.57
2023-04-30T19:44:20.030Z,13.90
2023-04-30T19:46:48.131Z,11.65
2023-04-30T19:49:16.395Z,9.05
2023-04-30T19:51:43.719Z,9.15
2023-04-30T19:54:14.398Z,7.80
2023-04-30T19:56:42.159Z,7.28
2023-04-30T19:59:10.627Z,7.03
2023-04-30T20:01:38.749Z,6.50
2023-04-30T20:04:07.123Z,6.40
2023-04-30T20:06:34.564Z,6.75
2023-04-30T20:09:02.669Z,5.70
2023-04-30T20:11:30.060Z,6.10
2023-04-30T20:13:57.789Z,6.43
2023-04-30T20:16:25.436Z,6.03
2023-04-30T20:18:53.164Z,6.25
2023-04-30T20:21:21.492Z,8.88
2023-04-30T20:23:49.123Z,8.73
2023-04-30T20:26:17.071Z,8.00
2023-04-30T20:28:44.849Z,7.47
2023-04-30T20:31:12.182Z,6.85
2023-04-30T20:33:41.364Z,6.60
2023-04-30T20:36:08.741Z,7.38
2023-04-30T20:38:36.448Z,8.38
2023-04-30T20:41:10.297Z,6.80
2023-04-30T20:43:38.145Z,9.30
2023-04-30T20:46:05.527Z,8.05
2023-04-30T20:48:33.085Z,8.63
2023-04-30T20:51:00.698Z,8.63
2023-04-30T20:53:28.228Z,7.47
2023-04-30T20:56:00.312Z,6.82
2023-04-30T20:58:28.890Z,5.80
2023-04-30T21:00:56.845Z,5.53
2023-04-30T21:03:24.956Z,5.10
2023-04-30T21:05:52.382Z,6.47
2023-04-30T21:08:19.984Z,5.78
2023-04-30T21:10:47.261Z,5.45
2023-04-30T21:13:15.131Z,10.07
2023-04-30T21:15:44.165Z,12.68
2023-04-30T21:18:11.768Z,10.35
2023-04-30T21:20:39.152Z,7.97
2023-04-30T21:23:06.833Z,7.30
2023-04-30T21:25:38.295Z,6.03
2023-04-30T21:28:06.547Z,5.88
2023-04-30T21:30:35.663Z,6.55
2023-04-30T21:33:04.068Z,5.45
2023-04-30T21:35:33.154Z,5.65
2023-04-30T21:38:01.023Z,5.50
2023-04-30T21:40:32.173Z,6.10
2023-04-30T21:43:01.511Z,5.30
2023-04-30T21:45:28.792Z,4.80
2023-04-30T21:47:56.564Z,5.55
2023-04-30T21:50:24.158Z,6.32
2023-04-30T21:52:53.037Z,6.03
2023-04-30T21:55:20.788Z,5.03
2023-04-30T21:57:51.323Z,5.32
2023-04-30T22:00:18.947Z,6.38
2023-04-30T22:02:47.718Z,7.10
2023-04-30T22:05:15.403Z,7.60
2023-04-30T22:07:43.188Z,7.93
2023-04-30T22:10:11.061Z,8.35
2023-04-30T22:12:38.722Z,10.50
2023-04-30T22:15:07.150Z,11.02
2023-04-30T22:17:34.788Z,10.50
2023-04-30T22:20:02.152Z,9.73
2023-04-30T22:22:29.721Z,8.32
2023-04-30T22:24:57.119Z,8.15
2023-04-30T22:27:25.084Z,8.25
2023-04-30T22:29:52.374Z,8.52
2023-04-30T22:32:19.917Z,8.15
2023-04-30T22:34:47.292Z,7.60
2023-04-30T22:37:14.833Z,8.93
2023-04-30T22:39:42.632Z,8.68
2023-04-30T22:42:10.921Z,9.20
2023-04-30T22:44:38.304Z,10.23
2023-04-30T22:47:06.553Z,11.05
2023-04-30T22:49:35.749Z,9.63
2023-04-30T22:52:04.294Z,8.88
2023-04-30T22:54:31.712Z,8.35
2023-04-30T22:56:59.862Z,7.05
2023-04-30T22:59:27.214Z,7.47
2023-04-30T23:01:54.848Z,7.75
2023-04-30T23:04:22.777Z,8.52
2023-04-30T23:06:50.527Z,6.85
2023-04-30T23:09:17.882Z,7.63
2023-04-30T23:11:45.853Z,7.35
2023-04-30T23:14:13.113Z,7.88
2023-04-30T23:16:42.758Z,7.70
2023-04-30T23:19:10.785Z,8.00
2023-04-30T23:21:38.632Z,6.90
2023-04-30T23:24:06.048Z,7.95
2023-04-30T23:26:33.712Z,7.55
2023-04-30T23:29:01.090Z,7.60
2023-04-30T23:31:28.829Z,7.10
2023-04-30T23:33:56.438Z,8.45
2023-04-30T23:36:24.019Z,6.85
2023-04-30T23:38:51.424Z,8.90
2023-04-30T23:41:19.035Z,7.60
2023-04-30T23:43:46.273Z,9.70
2023-04-30T23:46:16.094Z,8.73
2023-04-30T23:48:43.400Z,7.15
2023-04-30T23:51:11.031Z,7.47
2023-04-30T23:53:38.260Z,7.65
2023-04-30T23:56:06.180Z,8.20
2023-04-30T23:58:33.539Z,7.93
